Mountain Home, Arkansas
Current Conditions -  °F | °C
As of 3:53 AM on Wednesday 26 Nov 2014 (Local Time) from KBPK Reporting Station
Few Clouds Few Clouds  
Wind Chill: 24°   Ceiling: Unl
Heat Index: 29°   Visibility: 10mi
Dew Point: 21°   Wind: 5mph
Humidity: 72%   Direction: 160°SSE
Pressure: 30.04"   Gusts: NA
Location:  36.34°N, 92.38°W
Report Text: KBPK 260953Z AUTO 16004KT 10SM FEW120 M02/M06 A3004 RMK AO2 SLP178 T10171061
Loading
Personal Weather Stations






























Interactive Weather Map New forecast layout! Learn more

10-Day Weather Forecast

Advertisements
Track Severe Weather on mobile